sensor_id;sensor_type;location;lat;lon;timestamp;P1;durP1;ratioP1;P2;durP2;ratioP2
75793;SDS011;64418;47.536;19.074;2023-10-19T00:01:09;19.67;;;9.17;;
75793;SDS011;64418;47.536;19.074;2023-10-19T00:03:40;15.90;;;8.68;;
75793;SDS011;64418;47.536;19.074;2023-10-19T00:06:08;15.00;;;8.73;;
75793;SDS011;64418;47.536;19.074;2023-10-19T00:08:37;17.33;;;8.77;;
75793;SDS011;64418;47.536;19.074;2023-10-19T00:11:04;14.80;;;8.60;;
75793;SDS011;64418;47.536;19.074;2023-10-19T00:13:31;12.03;;;7.60;;
75793;SDS011;64418;47.536;19.074;2023-10-19T00:15:57;15.52;;;7.82;;
75793;SDS011;64418;47.536;19.074;2023-10-19T00:18:24;13.98;;;7.62;;
75793;SDS011;64418;47.536;19.074;2023-10-19T00:20:54;14.95;;;8.35;;
75793;SDS011;64418;47.536;19.074;2023-10-19T00:23:21;15.57;;;7.65;;
75793;SDS011;64418;47.536;19.074;2023-10-19T00:25:49;13.30;;;6.87;;
75793;SDS011;64418;47.536;19.074;2023-10-19T00:28:15;13.05;;;7.35;;
75793;SDS011;64418;47.536;19.074;2023-10-19T00:30:44;12.13;;;7.80;;
75793;SDS011;64418;47.536;19.074;2023-10-19T00:33:11;11.50;;;7.15;;
75793;SDS011;64418;47.536;19.074;2023-10-19T00:35:38;13.43;;;7.35;;
75793;SDS011;64418;47.536;19.074;2023-10-19T00:38:06;14.93;;;7.63;;
75793;SDS011;64418;47.536;19.074;2023-10-19T00:40:32;14.80;;;7.87;;
75793;SDS011;64418;47.536;19.074;2023-10-19T00:42:58;12.90;;;7.60;;
75793;SDS011;64418;47.536;19.074;2023-10-19T00:45:27;12.13;;;7.43;;
75793;SDS011;64418;47.536;19.074;2023-10-19T00:47:54;14.85;;;7.40;;
75793;SDS011;64418;47.536;19.074;2023-10-19T00:50:21;12.43;;;7.30;;
75793;SDS011;64418;47.536;19.074;2023-10-19T00:52:48;12.20;;;7.60;;
75793;SDS011;64418;47.536;19.074;2023-10-19T00:55:18;14.32;;;8.05;;
75793;SDS011;64418;47.536;19.074;2023-10-19T00:57:45;14.20;;;7.22;;
75793;SDS011;64418;47.536;19.074;2023-10-19T01:00:13;13.32;;;7.03;;
75793;SDS011;64418;47.536;19.074;2023-10-19T01:02:42;12.07;;;7.40;;
75793;SDS011;64418;47.536;19.074;2023-10-19T01:05:09;11.05;;;7.10;;
75793;SDS011;64418;47.536;19.074;2023-10-19T01:07:35;12.25;;;7.65;;
75793;SDS011;64418;47.536;19.074;2023-10-19T01:10:01;10.38;;;6.85;;
75793;SDS011;64418;47.536;19.074;2023-10-19T01:12:30;13.82;;;7.47;;
75793;SDS011;64418;47.536;19.074;2023-10-19T01:15:03;14.90;;;7.73;;
75793;SDS011;64418;47.536;19.074;2023-10-19T01:17:31;13.52;;;7.28;;
75793;SDS011;64418;47.536;19.074;2023-10-19T01:19:59;16.08;;;7.25;;
75793;SDS011;64418;47.536;19.074;2023-10-19T01:22:25;13.20;;;7.80;;
75793;SDS011;64418;47.536;19.074;2023-10-19T01:24:53;14.10;;;7.90;;
75793;SDS011;64418;47.536;19.074;2023-10-19T01:27:19;12.17;;;7.03;;
75793;SDS011;64418;47.536;19.074;2023-10-19T01:29:46;12.88;;;7.57;;
75793;SDS011;64418;47.536;19.074;2023-10-19T01:32:12;11.68;;;7.37;;
75793;SDS011;64418;47.536;19.074;2023-10-19T01:34:39;12.63;;;7.62;;
75793;SDS011;64418;47.536;19.074;2023-10-19T01:37:05;11.80;;;7.60;;
75793;SDS011;64418;47.536;19.074;2023-10-19T01:39:31;13.10;;;7.17;;
75793;SDS011;64418;47.536;19.074;2023-10-19T01:41:59;15.73;;;8.38;;
75793;SDS011;64418;47.536;19.074;2023-10-19T01:44:25;13.05;;;7.95;;
75793;SDS011;64418;47.536;19.074;2023-10-19T01:46:52;14.00;;;8.02;;
75793;SDS011;64418;47.536;19.074;2023-10-19T01:49:18;16.35;;;9.00;;
75793;SDS011;64418;47.536;19.074;2023-10-19T01:51:46;16.97;;;8.37;;
75793;SDS011;64418;47.536;19.074;2023-10-19T01:54:12;14.43;;;7.97;;
75793;SDS011;64418;47.536;19.074;2023-10-19T01:56:38;14.70;;;8.82;;
75793;SDS011;64418;47.536;19.074;2023-10-19T01:59:08;18.58;;;9.27;;
75793;SDS011;64418;47.536;19.074;2023-10-19T02:01:35;18.05;;;9.63;;
75793;SDS011;64418;47.536;19.074;2023-10-19T02:04:03;15.53;;;9.07;;
75793;SDS011;64418;47.536;19.074;2023-10-19T02:06:31;19.70;;;9.55;;
75793;SDS011;64418;47.536;19.074;2023-10-19T02:08:58;12.82;;;8.82;;
75793;SDS011;64418;47.536;19.074;2023-10-19T02:11:25;17.02;;;10.10;;
75793;SDS011;64418;47.536;19.074;2023-10-19T02:13:54;18.23;;;9.95;;
75793;SDS011;64418;47.536;19.074;2023-10-19T02:16:26;18.00;;;9.90;;
75793;SDS011;64418;47.536;19.074;2023-10-19T02:18:53;16.40;;;10.00;;
75793;SDS011;64418;47.536;19.074;2023-10-19T02:21:19;16.70;;;9.73;;
75793;SDS011;64418;47.536;19.074;2023-10-19T02:23:46;22.70;;;11.15;;
75793;SDS011;64418;47.536;19.074;2023-10-19T02:26:12;14.37;;;10.00;;
75793;SDS011;64418;47.536;19.074;2023-10-19T02:28:39;20.23;;;10.82;;
75793;SDS011;64418;47.536;19.074;2023-10-19T02:31:05;17.73;;;11.43;;
75793;SDS011;64418;47.536;19.074;2023-10-19T02:33:37;18.75;;;11.35;;
75793;SDS011;64418;47.536;19.074;2023-10-19T02:36:04;20.60;;;12.07;;
75793;SDS011;64418;47.536;19.074;2023-10-19T02:38:30;19.37;;;11.73;;
75793;SDS011;64418;47.536;19.074;2023-10-19T02:40:56;21.95;;;12.65;;
75793;SDS011;64418;47.536;19.074;2023-10-19T02:43:23;23.55;;;12.43;;
75793;SDS011;64418;47.536;19.074;2023-10-19T02:45:52;20.58;;;12.85;;
75793;SDS011;64418;47.536;19.074;2023-10-19T02:48:22;21.63;;;12.90;;
75793;SDS011;64418;47.536;19.074;2023-10-19T02:50:55;22.52;;;12.98;;
75793;SDS011;64418;47.536;19.074;2023-10-19T02:53:23;22.50;;;12.95;;
75793;SDS011;64418;47.536;19.074;2023-10-19T02:55:52;23.67;;;13.35;;
75793;SDS011;64418;47.536;19.074;2023-10-19T02:58:24;25.77;;;13.55;;
75793;SDS011;64418;47.536;19.074;2023-10-19T03:00:51;21.57;;;12.77;;
75793;SDS011;64418;47.536;19.074;2023-10-19T03:03:17;22.65;;;13.52;;
75793;SDS011;64418;47.536;19.074;2023-10-19T03:05:42;25.37;;;14.43;;
75793;SDS011;64418;47.536;19.074;2023-10-19T03:11:23;26.57;;;14.87;;
75793;SDS011;64418;47.536;19.074;2023-10-19T03:13:49;26.48;;;14.68;;
75793;SDS011;64418;47.536;19.074;2023-10-19T03:16:18;26.95;;;15.77;;
75793;SDS011;64418;47.536;19.074;2023-10-19T03:18:47;25.83;;;15.10;;
75793;SDS011;64418;47.536;19.074;2023-10-19T03:21:18;24.55;;;15.60;;
75793;SDS011;64418;47.536;19.074;2023-10-19T03:26:45;30.15;;;16.52;;
75793;SDS011;64418;47.536;19.074;2023-10-19T03:29:12;28.50;;;17.25;;
75793;SDS011;64418;47.536;19.074;2023-10-19T03:31:42;26.27;;;16.12;;
75793;SDS011;64418;47.536;19.074;2023-10-19T03:34:08;29.83;;;17.37;;
75793;SDS011;64418;47.536;19.074;2023-10-19T03:36:34;28.87;;;16.70;;
75793;SDS011;64418;47.536;19.074;2023-10-19T03:39:01;29.00;;;16.83;;
75793;SDS011;64418;47.536;19.074;2023-10-19T03:44:25;31.80;;;17.55;;
75793;SDS011;64418;47.536;19.074;2023-10-19T03:46:55;29.73;;;17.67;;
75793;SDS011;64418;47.536;19.074;2023-10-19T03:49:22;31.65;;;17.85;;
75793;SDS011;64418;47.536;19.074;2023-10-19T03:51:49;32.63;;;18.15;;
75793;SDS011;64418;47.536;19.074;2023-10-19T03:54:15;31.33;;;17.55;;
75793;SDS011;64418;47.536;19.074;2023-10-19T03:56:42;30.52;;;18.87;;
75793;SDS011;64418;47.536;19.074;2023-10-19T04:48:32;31.60;;;18.60;;
75793;SDS011;64418;47.536;19.074;2023-10-19T04:50:59;35.58;;;19.77;;
75793;SDS011;64418;47.536;19.074;2023-10-19T04:53:26;42.35;;;21.67;;
75793;SDS011;64418;47.536;19.074;2023-10-19T04:55:53;36.72;;;21.15;;
75793;SDS011;64418;47.536;19.074;2023-10-19T04:58:25;37.50;;;22.02;;
75793;SDS011;64418;47.536;19.074;2023-10-19T05:01:01;41.80;;;21.70;;
75793;SDS011;64418;47.536;19.074;2023-10-19T05:07:06;36.33;;;19.58;;
75793;SDS011;64418;47.536;19.074;2023-10-19T05:09:32;36.80;;;19.37;;
75793;SDS011;64418;47.536;19.074;2023-10-19T05:12:00;38.17;;;23.58;;
75793;SDS011;64418;47.536;19.074;2023-10-19T05:14:29;35.43;;;19.67;;
75793;SDS011;64418;47.536;19.074;2023-10-19T05:16:58;35.30;;;19.08;;
75793;SDS011;64418;47.536;19.074;2023-10-19T05:19:25;34.78;;;19.58;;
75793;SDS011;64418;47.536;19.074;2023-10-19T05:34:59;32.58;;;17.62;;
75793;SDS011;64418;47.536;19.074;2023-10-19T05:40:08;32.95;;;18.33;;
75793;SDS011;64418;47.536;19.074;2023-10-19T05:43:32;35.30;;;18.23;;
75793;SDS011;64418;47.536;19.074;2023-10-19T05:46:05;33.03;;;18.25;;
75793;SDS011;64418;47.536;19.074;2023-10-19T06:08:24;44.75;;;19.60;;
75793;SDS011;64418;47.536;19.074;2023-10-19T06:10:50;37.15;;;18.00;;
75793;SDS011;64418;47.536;19.074;2023-10-19T06:13:18;36.13;;;17.47;;
75793;SDS011;64418;47.536;19.074;2023-10-19T06:15:44;42.88;;;18.92;;
75793;SDS011;64418;47.536;19.074;2023-10-19T06:18:12;43.25;;;19.92;;
75793;SDS011;64418;47.536;19.074;2023-10-19T06:20:46;42.88;;;19.67;;
75793;SDS011;64418;47.536;19.074;2023-10-19T06:32:47;44.90;;;18.52;;
75793;SDS011;64418;47.536;19.074;2023-10-19T06:35:14;34.25;;;18.33;;
75793;SDS011;64418;47.536;19.074;2023-10-19T06:37:43;44.33;;;20.37;;
75793;SDS011;64418;47.536;19.074;2023-10-19T06:40:10;37.90;;;19.33;;
75793;SDS011;64418;47.536;19.074;2023-10-19T06:42:37;54.88;;;21.75;;
75793;SDS011;64418;47.536;19.074;2023-10-19T06:45:05;40.03;;;19.35;;
75793;SDS011;64418;47.536;19.074;2023-10-19T06:47:32;35.40;;;18.10;;
75793;SDS011;64418;47.536;19.074;2023-10-19T06:49:58;37.37;;;19.90;;
75793;SDS011;64418;47.536;19.074;2023-10-19T06:52:24;30.83;;;16.67;;
75793;SDS011;64418;47.536;19.074;2023-10-19T06:54:50;45.17;;;21.52;;
75793;SDS011;64418;47.536;19.074;2023-10-19T06:57:16;43.03;;;18.33;;
75793;SDS011;64418;47.536;19.074;2023-10-19T06:59:42;33.50;;;17.47;;
75793;SDS011;64418;47.536;19.074;2023-10-19T07:02:09;37.88;;;18.30;;
75793;SDS011;64418;47.536;19.074;2023-10-19T07:04:35;41.20;;;18.90;;
75793;SDS011;64418;47.536;19.074;2023-10-19T07:07:01;32.23;;;17.33;;
75793;SDS011;64418;47.536;19.074;2023-10-19T07:09:29;36.63;;;17.85;;
75793;SDS011;64418;47.536;19.074;2023-10-19T07:11:55;32.28;;;16.73;;
75793;SDS011;64418;47.536;19.074;2023-10-19T07:14:21;34.50;;;16.60;;
75793;SDS011;64418;47.536;19.074;2023-10-19T07:16:50;52.57;;;17.80;;
75793;SDS011;64418;47.536;19.074;2023-10-19T07:19:18;29.90;;;17.05;;
75793;SDS011;64418;47.536;19.074;2023-10-19T07:21:43;38.65;;;17.85;;
75793;SDS011;64418;47.536;19.074;2023-10-19T07:24:11;32.93;;;17.00;;
75793;SDS011;64418;47.536;19.074;2023-10-19T07:26:37;33.73;;;17.17;;
75793;SDS011;64418;47.536;19.074;2023-10-19T07:29:03;28.23;;;16.48;;
75793;SDS011;64418;47.536;19.074;2023-10-19T07:31:29;28.12;;;16.27;;
75793;SDS011;64418;47.536;19.074;2023-10-19T07:33:55;35.97;;;19.10;;
75793;SDS011;64418;47.536;19.074;2023-10-19T07:36:23;33.00;;;18.10;;
75793;SDS011;64418;47.536;19.074;2023-10-19T07:38:48;28.85;;;16.17;;
75793;SDS011;64418;47.536;19.074;2023-10-19T07:41:14;26.83;;;16.60;;
75793;SDS011;64418;47.536;19.074;2023-10-19T07:43:40;27.03;;;16.37;;
75793;SDS011;64418;47.536;19.074;2023-10-19T07:46:06;28.90;;;16.45;;
75793;SDS011;64418;47.536;19.074;2023-10-19T07:48:32;39.13;;;16.40;;
75793;SDS011;64418;47.536;19.074;2023-10-19T07:50:58;26.90;;;15.43;;
75793;SDS011;64418;47.536;19.074;2023-10-19T07:53:25;23.57;;;15.27;;
75793;SDS011;64418;47.536;19.074;2023-10-19T07:55:52;26.52;;;14.52;;
75793;SDS011;64418;47.536;19.074;2023-10-19T07:58:19;29.50;;;15.95;;
75793;SDS011;64418;47.536;19.074;2023-10-19T08:00:45;28.77;;;17.25;;
75793;SDS011;64418;47.536;19.074;2023-10-19T08:03:11;30.10;;;16.62;;
75793;SDS011;64418;47.536;19.074;2023-10-19T08:05:37;27.80;;;14.50;;
75793;SDS011;64418;47.536;19.074;2023-10-19T08:08:03;30.42;;;15.82;;
75793;SDS011;64418;47.536;19.074;2023-10-19T08:10:31;25.20;;;14.98;;
75793;SDS011;64418;47.536;19.074;2023-10-19T08:12:57;32.03;;;15.98;;
75793;SDS011;64418;47.536;19.074;2023-10-19T08:15:23;27.13;;;15.03;;
75793;SDS011;64418;47.536;19.074;2023-10-19T08:17:50;32.40;;;16.12;;
75793;SDS011;64418;47.536;19.074;2023-10-19T08:20:17;31.17;;;16.80;;
75793;SDS011;64418;47.536;19.074;2023-10-19T08:22:43;26.58;;;14.90;;
75793;SDS011;64418;47.536;19.074;2023-10-19T08:25:10;30.42;;;15.90;;
75793;SDS011;64418;47.536;19.074;2023-10-19T08:27:38;30.90;;;16.67;;
75793;SDS011;64418;47.536;19.074;2023-10-19T08:30:04;30.98;;;15.27;;
75793;SDS011;64418;47.536;19.074;2023-10-19T08:32:31;28.52;;;14.87;;
75793;SDS011;64418;47.536;19.074;2023-10-19T08:34:58;24.10;;;15.45;;
75793;SDS011;64418;47.536;19.074;2023-10-19T08:37:24;26.67;;;15.15;;
75793;SDS011;64418;47.536;19.074;2023-10-19T08:39:50;26.97;;;14.97;;
75793;SDS011;64418;47.536;19.074;2023-10-19T08:42:15;27.33;;;13.80;;
75793;SDS011;64418;47.536;19.074;2023-10-19T08:44:43;25.30;;;13.55;;
75793;SDS011;64418;47.536;19.074;2023-10-19T08:47:10;24.40;;;14.13;;
75793;SDS011;64418;47.536;19.074;2023-10-19T08:49:36;23.65;;;13.95;;
75793;SDS011;64418;47.536;19.074;2023-10-19T08:52:02;23.50;;;13.88;;
75793;SDS011;64418;47.536;19.074;2023-10-19T08:54:30;34.63;;;14.55;;
75793;SDS011;64418;47.536;19.074;2023-10-19T08:56:56;26.80;;;13.90;;
75793;SDS011;64418;47.536;19.074;2023-10-19T08:59:22;24.83;;;13.77;;
75793;SDS011;64418;47.536;19.074;2023-10-19T09:01:50;36.08;;;15.27;;
75793;SDS011;64418;47.536;19.074;2023-10-19T09:04:16;23.33;;;12.73;;
75793;SDS011;64418;47.536;19.074;2023-10-19T09:06:42;26.02;;;14.10;;
75793;SDS011;64418;47.536;19.074;2023-10-19T09:09:08;26.77;;;14.83;;
75793;SDS011;64418;47.536;19.074;2023-10-19T09:11:35;30.65;;;18.45;;
75793;SDS011;64418;47.536;19.074;2023-10-19T09:14:01;40.33;;;18.05;;
75793;SDS011;64418;47.536;19.074;2023-10-19T09:16:30;34.10;;;16.60;;
75793;SDS011;64418;47.536;19.074;2023-10-19T09:18:57;23.33;;;13.50;;
75793;SDS011;64418;47.536;19.074;2023-10-19T09:21:26;25.67;;;13.80;;
75793;SDS011;64418;47.536;19.074;2023-10-19T09:23:53;50.20;;;16.30;;
75793;SDS011;64418;47.536;19.074;2023-10-19T09:26:20;29.92;;;14.23;;
75793;SDS011;64418;47.536;19.074;2023-10-19T09:28:50;24.48;;;15.57;;
75793;SDS011;64418;47.536;19.074;2023-10-19T09:31:17;23.25;;;13.98;;
75793;SDS011;64418;47.536;19.074;2023-10-19T09:33:43;35.00;;;14.33;;
75793;SDS011;64418;47.536;19.074;2023-10-19T09:36:15;23.75;;;13.77;;
75793;SDS011;64418;47.536;19.074;2023-10-19T09:38:44;21.83;;;13.65;;
75793;SDS011;64418;47.536;19.074;2023-10-19T09:41:11;21.58;;;12.82;;
75793;SDS011;64418;47.536;19.074;2023-10-19T09:43:47;23.52;;;13.30;;
75793;SDS011;64418;47.536;19.074;2023-10-19T09:47:07;21.00;;;12.77;;
75793;SDS011;64418;47.536;19.074;2023-10-19T09:49:36;20.37;;;12.95;;
75793;SDS011;64418;47.536;19.074;2023-10-19T09:52:06;23.33;;;12.57;;
75793;SDS011;64418;47.536;19.074;2023-10-19T09:54:37;22.10;;;13.00;;
75793;SDS011;64418;47.536;19.074;2023-10-19T09:57:21;18.67;;;12.00;;
75793;SDS011;64418;47.536;19.074;2023-10-19T09:59:51;18.83;;;11.87;;
75793;SDS011;64418;47.536;19.074;2023-10-19T10:02:24;20.08;;;13.07;;
75793;SDS011;64418;47.536;19.074;2023-10-19T10:04:53;21.77;;;13.40;;
75793;SDS011;64418;47.536;19.074;2023-10-19T10:07:25;20.33;;;13.25;;
75793;SDS011;64418;47.536;19.074;2023-10-19T10:09:52;21.93;;;13.30;;
75793;SDS011;64418;47.536;19.074;2023-10-19T10:12:20;19.70;;;13.18;;
75793;SDS011;64418;47.536;19.074;2023-10-19T10:14:57;23.12;;;14.48;;
75793;SDS011;64418;47.536;19.074;2023-10-19T10:17:25;21.08;;;13.10;;
75793;SDS011;64418;47.536;19.074;2023-10-19T10:19:53;20.55;;;13.27;;
75793;SDS011;64418;47.536;19.074;2023-10-19T10:22:31;18.50;;;12.40;;
75793;SDS011;64418;47.536;19.074;2023-10-19T10:24:56;20.52;;;12.37;;
75793;SDS011;64418;47.536;19.074;2023-10-19T10:27:22;18.58;;;12.43;;
75793;SDS011;64418;47.536;19.074;2023-10-19T10:29:55;21.08;;;12.93;;
75793;SDS011;64418;47.536;19.074;2023-10-19T10:38:25;19.50;;;11.75;;
75793;SDS011;64418;47.536;19.074;2023-10-19T10:41:00;22.98;;;13.05;;
75793;SDS011;64418;47.536;19.074;2023-10-19T10:43:26;20.48;;;13.05;;
75793;SDS011;64418;47.536;19.074;2023-10-19T10:45:52;23.27;;;13.52;;
75793;SDS011;64418;47.536;19.074;2023-10-19T10:48:19;23.67;;;12.47;;
75793;SDS011;64418;47.536;19.074;2023-10-19T10:50:45;25.10;;;14.07;;
75793;SDS011;64418;47.536;19.074;2023-10-19T10:53:13;24.77;;;15.63;;
75793;SDS011;64418;47.536;19.074;2023-10-19T10:55:43;25.17;;;13.88;;
75793;SDS011;64418;47.536;19.074;2023-10-19T10:58:09;24.12;;;13.57;;
75793;SDS011;64418;47.536;19.074;2023-10-19T11:00:43;23.53;;;14.07;;
75793;SDS011;64418;47.536;19.074;2023-10-19T11:03:10;24.83;;;14.50;;
75793;SDS011;64418;47.536;19.074;2023-10-19T11:05:35;23.87;;;13.62;;
75793;SDS011;64418;47.536;19.074;2023-10-19T11:08:02;42.55;;;16.73;;
75793;SDS011;64418;47.536;19.074;2023-10-19T11:16:57;30.08;;;13.80;;
75793;SDS011;64418;47.536;19.074;2023-10-19T11:19:40;38.50;;;14.68;;
75793;SDS011;64418;47.536;19.074;2023-10-19T11:22:10;27.40;;;15.95;;
75793;SDS011;64418;47.536;19.074;2023-10-19T11:24:36;22.27;;;14.20;;
75793;SDS011;64418;47.536;19.074;2023-10-19T11:27:02;26.17;;;15.70;;
75793;SDS011;64418;47.536;19.074;2023-10-19T11:29:30;27.40;;;15.15;;
75793;SDS011;64418;47.536;19.074;2023-10-19T11:32:10;23.52;;;13.93;;
75793;SDS011;64418;47.536;19.074;2023-10-19T11:34:39;24.48;;;14.35;;
75793;SDS011;64418;47.536;19.074;2023-10-19T11:37:07;21.93;;;12.50;;
75793;SDS011;64418;47.536;19.074;2023-10-19T11:39:33;20.45;;;12.18;;
75793;SDS011;64418;47.536;19.074;2023-10-19T11:41:59;21.70;;;13.13;;
75793;SDS011;64418;47.536;19.074;2023-10-19T11:44:25;23.40;;;13.62;;
75793;SDS011;64418;47.536;19.074;2023-10-19T11:46:55;22.85;;;13.80;;
75793;SDS011;64418;47.536;19.074;2023-10-19T11:49:23;21.30;;;13.67;;
75793;SDS011;64418;47.536;19.074;2023-10-19T11:51:50;24.45;;;13.50;;
75793;SDS011;64418;47.536;19.074;2023-10-19T11:54:27;22.48;;;13.85;;
75793;SDS011;64418;47.536;19.074;2023-10-19T11:56:56;23.23;;;13.77;;
75793;SDS011;64418;47.536;19.074;2023-10-19T11:59:23;25.90;;;15.05;;
75793;SDS011;64418;47.536;19.074;2023-10-19T12:01:49;23.57;;;13.60;;
75793;SDS011;64418;47.536;19.074;2023-10-19T12:04:17;29.15;;;13.82;;
75793;SDS011;64418;47.536;19.074;2023-10-19T12:06:51;25.65;;;14.55;;
75793;SDS011;64418;47.536;19.074;2023-10-19T12:09:18;29.80;;;14.35;;
75793;SDS011;64418;47.536;19.074;2023-10-19T12:11:46;27.02;;;14.05;;
75793;SDS011;64418;47.536;19.074;2023-10-19T12:14:12;27.20;;;14.03;;
75793;SDS011;64418;47.536;19.074;2023-10-19T12:16:38;23.62;;;14.00;;
75793;SDS011;64418;47.536;19.074;2023-10-19T12:19:05;26.55;;;13.02;;
75793;SDS011;64418;47.536;19.074;2023-10-19T12:52:10;23.12;;;14.43;;
75793;SDS011;64418;47.536;19.074;2023-10-19T12:54:44;22.95;;;14.63;;
75793;SDS011;64418;47.536;19.074;2023-10-19T12:57:19;24.37;;;15.43;;
75793;SDS011;64418;47.536;19.074;2023-10-19T12:59:46;25.85;;;14.60;;
75793;SDS011;64418;47.536;19.074;2023-10-19T13:05:53;22.05;;;14.63;;
75793;SDS011;64418;47.536;19.074;2023-10-19T19:18:29;42.62;;;19.87;;
75793;SDS011;64418;47.536;19.074;2023-10-19T19:20:56;44.40;;;20.48;;
75793;SDS011;64418;47.536;19.074;2023-10-19T19:23:23;52.97;;;22.00;;
75793;SDS011;64418;47.536;19.074;2023-10-19T19:25:50;48.30;;;21.40;;
75793;SDS011;64418;47.536;19.074;2023-10-19T19:28:17;47.85;;;21.48;;
75793;SDS011;64418;47.536;19.074;2023-10-19T19:30:44;52.35;;;21.80;;
75793;SDS011;64418;47.536;19.074;2023-10-19T19:33:15;51.75;;;20.73;;
75793;SDS011;64418;47.536;19.074;2023-10-19T20:36:22;36.77;;;18.23;;
75793;SDS011;64418;47.536;19.074;2023-10-19T20:38:50;41.28;;;18.37;;
75793;SDS011;64418;47.536;19.074;2023-10-19T20:41:19;40.78;;;19.30;;
75793;SDS011;64418;47.536;19.074;2023-10-19T20:43:46;40.50;;;19.37;;
